Terminal Aerodrome Forecast
Issued by NWS

Home | Current Version | Previous Version | Text Only | Print | Product List | Glossary On
Versions: 1 2 3 4 5 6 7 8 9 10 11 12 13 14 15 16 17 18 19 20 21 22 23
000
FTUS43 KBIS 240037 AAA
TAFDIK
TAF AMD
KDIK 240037Z 2401/2424 08015KT P6SM OVC009
     FM240400 08013KT P6SM VCSH OVC008
     FM240700 08011KT 6SM -RA OVC008
     FM241100 04007KT P6SM VCSH OVC003
     FM241300 01007KT P6SM OVC003
     FM241600 34009KT P6SM OVC008
     FM241800 34010KT P6SM OVC015
     FM242200 36010KT P6SM OVC025=

USA.gov is the U.S. government's official web portal to all federal, state and local government web resources and services.